sensor_id;sensor_type;location;lat;lon;timestamp;temperature;humidity
18797;DHT22;9526;52.612;13.300;2023-05-10T00:02:00;13.00;95.50
18797;DHT22;9526;52.612;13.300;2023-05-10T00:04:24;13.00;95.60
18797;DHT22;9526;52.612;13.300;2023-05-10T00:06:49;13.00;95.60
18797;DHT22;9526;52.612;13.300;2023-05-10T00:09:13;13.00;95.70
18797;DHT22;9526;52.612;13.300;2023-05-10T00:11:36;12.90;95.80
18797;DHT22;9526;52.612;13.300;2023-05-10T00:14:00;12.90;96.00
18797;DHT22;9526;52.612;13.300;2023-05-10T00:16:25;12.90;96.90
18797;DHT22;9526;52.612;13.300;2023-05-10T00:18:49;12.80;96.90
18797;DHT22;9526;52.612;13.300;2023-05-10T00:21:12;12.80;97.30
18797;DHT22;9526;52.612;13.300;2023-05-10T00:23:36;12.70;97.60
18797;DHT22;9526;52.612;13.300;2023-05-10T00:26:00;12.60;97.90
18797;DHT22;9526;52.612;13.300;2023-05-10T00:28:24;12.50;98.30
18797;DHT22;9526;52.612;13.300;2023-05-10T00:30:47;12.40;98.40
18797;DHT22;9526;52.612;13.300;2023-05-10T00:33:12;12.40;98.90
18797;DHT22;9526;52.612;13.300;2023-05-10T00:35:36;12.30;99.40
18797;DHT22;9526;52.612;13.300;2023-05-10T00:38:00;12.20;99.30
18797;DHT22;9526;52.612;13.300;2023-05-10T00:40:24;12.20;99.70
18797;DHT22;9526;52.612;13.300;2023-05-10T00:42:52;12.10;99.60
18797;DHT22;9526;52.612;13.300;2023-05-10T00:45:15;12.00;99.90
18797;DHT22;9526;52.612;13.300;2023-05-10T00:47:39;12.00;99.90
18797;DHT22;9526;52.612;13.300;2023-05-10T00:50:06;11.90;99.90
18797;DHT22;9526;52.612;13.300;2023-05-10T00:52:31;11.80;99.90
18797;DHT22;9526;52.612;13.300;2023-05-10T00:54:55;11.70;99.90
18797;DHT22;9526;52.612;13.300;2023-05-10T00:57:20;11.70;99.90
18797;DHT22;9526;52.612;13.300;2023-05-10T00:59:44;11.60;99.90
18797;DHT22;9526;52.612;13.300;2023-05-10T01:02:08;11.50;99.90
18797;DHT22;9526;52.612;13.300;2023-05-10T01:04:31;11.50;99.90
18797;DHT22;9526;52.612;13.300;2023-05-10T01:06:58;11.40;99.90
18797;DHT22;9526;52.612;13.300;2023-05-10T01:09:22;11.30;99.90
18797;DHT22;9526;52.612;13.300;2023-05-10T01:11:48;11.20;99.90
18797;DHT22;9526;52.612;13.300;2023-05-10T01:14:13;11.20;99.90
18797;DHT22;9526;52.612;13.300;2023-05-10T01:16:39;11.20;99.90
18797;DHT22;9526;52.612;13.300;2023-05-10T01:19:04;11.10;99.90
18797;DHT22;9526;52.612;13.300;2023-05-10T01:21:36;11.00;99.90
18797;DHT22;9526;52.612;13.300;2023-05-10T01:24:31;11.00;99.90
18797;DHT22;9526;52.612;13.300;2023-05-10T01:27:25;10.90;99.90
18797;DHT22;9526;52.612;13.300;2023-05-10T01:30:41;10.80;99.90
18797;DHT22;9526;52.612;13.300;2023-05-10T01:33:30;10.80;99.90
18797;DHT22;9526;52.612;13.300;2023-05-10T01:36:05;10.70;99.90
18797;DHT22;9526;52.612;13.300;2023-05-10T01:38:38;10.70;99.90
18797;DHT22;9526;52.612;13.300;2023-05-10T01:41:13;10.60;99.90
18797;DHT22;9526;52.612;13.300;2023-05-10T01:43:44;10.60;99.90
18797;DHT22;9526;52.612;13.300;2023-05-10T01:46:17;10.50;99.90
18797;DHT22;9526;52.612;13.300;2023-05-10T01:48:49;10.50;99.90
18797;DHT22;9526;52.612;13.300;2023-05-10T01:51:21;10.40;99.90
18797;DHT22;9526;52.612;13.300;2023-05-10T01:53:48;10.40;99.90
18797;DHT22;9526;52.612;13.300;2023-05-10T01:56:14;10.40;99.90
18797;DHT22;9526;52.612;13.300;2023-05-10T01:58:40;10.30;99.90
18797;DHT22;9526;52.612;13.300;2023-05-10T02:01:08;10.30;99.90
18797;DHT22;9526;52.612;13.300;2023-05-10T02:03:34;10.30;99.90
18797;DHT22;9526;52.612;13.300;2023-05-10T02:06:00;10.30;99.90
18797;DHT22;9526;52.612;13.300;2023-05-10T02:08:25;10.30;99.90
18797;DHT22;9526;52.612;13.300;2023-05-10T02:10:51;10.30;99.90
18797;DHT22;9526;52.612;13.300;2023-05-10T02:13:18;10.20;99.90
18797;DHT22;9526;52.612;13.300;2023-05-10T02:15:43;10.20;99.90
18797;DHT22;9526;52.612;13.300;2023-05-10T02:18:07;10.20;99.90
18797;DHT22;9526;52.612;13.300;2023-05-10T02:20:33;10.20;99.90
18797;DHT22;9526;52.612;13.300;2023-05-10T02:23:00;10.20;99.90
18797;DHT22;9526;52.612;13.300;2023-05-10T02:25:25;10.30;99.90
18797;DHT22;9526;52.612;13.300;2023-05-10T02:27:50;10.20;99.90
18797;DHT22;9526;52.612;13.300;2023-05-10T02:30:15;10.40;99.90
18797;DHT22;9526;52.612;13.300;2023-05-10T02:32:40;10.40;99.90
18797;DHT22;9526;52.612;13.300;2023-05-10T02:35:05;10.50;99.90
18797;DHT22;9526;52.612;13.300;2023-05-10T02:37:30;10.50;99.90
18797;DHT22;9526;52.612;13.300;2023-05-10T02:39:56;10.40;99.90
18797;DHT22;9526;52.612;13.300;2023-05-10T02:42:23;10.60;99.90
18797;DHT22;9526;52.612;13.300;2023-05-10T02:44:50;10.60;99.90
18797;DHT22;9526;52.612;13.300;2023-05-10T02:47:14;10.60;99.90
18797;DHT22;9526;52.612;13.300;2023-05-10T02:49:38;10.60;99.90
18797;DHT22;9526;52.612;13.300;2023-05-10T02:52:05;10.60;99.90
18797;DHT22;9526;52.612;13.300;2023-05-10T02:54:34;10.70;99.90
18797;DHT22;9526;52.612;13.300;2023-05-10T02:57:05;10.80;99.90
18797;DHT22;9526;52.612;13.300;2023-05-10T02:59:30;10.80;99.90
18797;DHT22;9526;52.612;13.300;2023-05-10T03:01:54;10.80;99.90
18797;DHT22;9526;52.612;13.300;2023-05-10T03:04:18;10.80;99.90
18797;DHT22;9526;52.612;13.300;2023-05-10T03:06:42;10.70;99.90
18797;DHT22;9526;52.612;13.300;2023-05-10T03:09:06;10.70;99.90
18797;DHT22;9526;52.612;13.300;2023-05-10T03:11:41;10.70;99.90
18797;DHT22;9526;52.612;13.300;2023-05-10T03:14:21;10.70;99.90
18797;DHT22;9526;52.612;13.300;2023-05-10T03:16:57;10.70;99.90
18797;DHT22;9526;52.612;13.300;2023-05-10T03:19:27;10.80;99.90
18797;DHT22;9526;52.612;13.300;2023-05-10T03:21:56;10.70;99.90
18797;DHT22;9526;52.612;13.300;2023-05-10T03:24:27;10.70;99.90
18797;DHT22;9526;52.612;13.300;2023-05-10T03:26:56;10.70;99.90
18797;DHT22;9526;52.612;13.300;2023-05-10T03:29:22;10.70;99.90
18797;DHT22;9526;52.612;13.300;2023-05-10T03:31:46;10.70;99.90
18797;DHT22;9526;52.612;13.300;2023-05-10T03:34:10;10.70;99.90
18797;DHT22;9526;52.612;13.300;2023-05-10T03:36:33;10.70;99.90
18797;DHT22;9526;52.612;13.300;2023-05-10T03:38:58;10.70;99.90
18797;DHT22;9526;52.612;13.300;2023-05-10T03:41:22;10.70;99.90
18797;DHT22;9526;52.612;13.300;2023-05-10T03:43:47;10.70;99.90
18797;DHT22;9526;52.612;13.300;2023-05-10T03:46:12;10.70;99.90
18797;DHT22;9526;52.612;13.300;2023-05-10T03:48:36;10.70;99.90
18797;DHT22;9526;52.612;13.300;2023-05-10T03:51:00;10.70;99.90
18797;DHT22;9526;52.612;13.300;2023-05-10T03:53:24;10.70;99.90
18797;DHT22;9526;52.612;13.300;2023-05-10T03:55:49;10.70;99.90
18797;DHT22;9526;52.612;13.300;2023-05-10T03:58:12;10.70;99.90
18797;DHT22;9526;52.612;13.300;2023-05-10T04:00:36;10.70;99.90
18797;DHT22;9526;52.612;13.300;2023-05-10T04:03:07;10.70;99.90
18797;DHT22;9526;52.612;13.300;2023-05-10T04:05:30;10.70;99.90
18797;DHT22;9526;52.612;13.300;2023-05-10T04:07:54;10.70;99.90
18797;DHT22;9526;52.612;13.300;2023-05-10T04:10:17;10.70;99.90
18797;DHT22;9526;52.612;13.300;2023-05-10T04:12:41;10.80;99.90
18797;DHT22;9526;52.612;13.300;2023-05-10T04:15:06;10.80;99.90
18797;DHT22;9526;52.612;13.300;2023-05-10T04:17:30;10.80;99.90
18797;DHT22;9526;52.612;13.300;2023-05-10T04:19:56;10.90;99.90
18797;DHT22;9526;52.612;13.300;2023-05-10T04:22:19;10.90;99.90
18797;DHT22;9526;52.612;13.300;2023-05-10T04:24:43;10.90;99.90
18797;DHT22;9526;52.612;13.300;2023-05-10T04:27:06;10.90;99.90
18797;DHT22;9526;52.612;13.300;2023-05-10T04:29:30;11.00;99.90
18797;DHT22;9526;52.612;13.300;2023-05-10T04:31:54;11.00;99.90
18797;DHT22;9526;52.612;13.300;2023-05-10T04:34:19;11.00;99.90
18797;DHT22;9526;52.612;13.300;2023-05-10T04:36:44;11.10;99.90
18797;DHT22;9526;52.612;13.300;2023-05-10T04:39:08;11.10;99.90
18797;DHT22;9526;52.612;13.300;2023-05-10T04:41:32;11.10;99.90
18797;DHT22;9526;52.612;13.300;2023-05-10T04:43:56;11.20;99.90
18797;DHT22;9526;52.612;13.300;2023-05-10T04:46:19;11.20;99.90
18797;DHT22;9526;52.612;13.300;2023-05-10T04:48:43;11.30;99.90
18797;DHT22;9526;52.612;13.300;2023-05-10T04:51:07;11.40;99.90
18797;DHT22;9526;52.612;13.300;2023-05-10T04:53:32;11.40;99.90
18797;DHT22;9526;52.612;13.300;2023-05-10T04:55:55;11.50;99.90
18797;DHT22;9526;52.612;13.300;2023-05-10T04:58:19;11.50;99.90
18797;DHT22;9526;52.612;13.300;2023-05-10T05:00:42;11.60;99.90
18797;DHT22;9526;52.612;13.300;2023-05-10T05:03:06;11.60;99.90
18797;DHT22;9526;52.612;13.300;2023-05-10T05:05:30;11.70;99.90
18797;DHT22;9526;52.612;13.300;2023-05-10T05:07:54;11.80;99.90
18797;DHT22;9526;52.612;13.300;2023-05-10T05:10:19;11.80;99.90
18797;DHT22;9526;52.612;13.300;2023-05-10T05:12:43;11.90;99.90
18797;DHT22;9526;52.612;13.300;2023-05-10T05:15:07;12.00;99.90
18797;DHT22;9526;52.612;13.300;2023-05-10T05:17:32;12.00;99.90
18797;DHT22;9526;52.612;13.300;2023-05-10T05:19:56;12.10;99.90
18797;DHT22;9526;52.612;13.300;2023-05-10T05:22:19;12.20;99.90
18797;DHT22;9526;52.612;13.300;2023-05-10T05:24:49;12.20;99.90
18797;DHT22;9526;52.612;13.300;2023-05-10T05:27:14;12.30;99.90
18797;DHT22;9526;52.612;13.300;2023-05-10T05:29:37;12.40;99.90
18797;DHT22;9526;52.612;13.300;2023-05-10T05:32:01;12.50;99.90
18797;DHT22;9526;52.612;13.300;2023-05-10T05:34:25;12.60;99.90
18797;DHT22;9526;52.612;13.300;2023-05-10T05:36:49;12.70;99.90
18797;DHT22;9526;52.612;13.300;2023-05-10T05:39:12;12.70;99.90
18797;DHT22;9526;52.612;13.300;2023-05-10T05:41:36;12.80;99.90
18797;DHT22;9526;52.612;13.300;2023-05-10T05:44:01;12.90;99.90
18797;DHT22;9526;52.612;13.300;2023-05-10T05:46:25;13.00;99.90
18797;DHT22;9526;52.612;13.300;2023-05-10T05:48:48;13.20;99.90
18797;DHT22;9526;52.612;13.300;2023-05-10T05:51:12;13.40;99.90
18797;DHT22;9526;52.612;13.300;2023-05-10T05:53:36;13.60;99.90
18797;DHT22;9526;52.612;13.300;2023-05-10T05:55:59;13.80;99.90
18797;DHT22;9526;52.612;13.300;2023-05-10T05:58:23;14.10;99.90
18797;DHT22;9526;52.612;13.300;2023-05-10T06:00:48;14.50;99.90
18797;DHT22;9526;52.612;13.300;2023-05-10T06:03:12;14.90;99.90
18797;DHT22;9526;52.612;13.300;2023-05-10T06:05:36;15.30;99.90
18797;DHT22;9526;52.612;13.300;2023-05-10T06:08:00;15.30;99.90
18797;DHT22;9526;52.612;13.300;2023-05-10T06:10:23;15.60;99.90
18797;DHT22;9526;52.612;13.300;2023-05-10T06:12:47;16.10;99.90
18797;DHT22;9526;52.612;13.300;2023-05-10T06:15:11;16.50;99.70
18797;DHT22;9526;52.612;13.300;2023-05-10T06:17:36;16.60;97.50
18797;DHT22;9526;52.612;13.300;2023-05-10T06:20:00;16.70;98.20
18797;DHT22;9526;52.612;13.300;2023-05-10T06:22:24;16.70;97.00
18797;DHT22;9526;52.612;13.300;2023-05-10T06:24:48;16.90;96.90
18797;DHT22;9526;52.612;13.300;2023-05-10T06:27:11;17.20;96.70
18797;DHT22;9526;52.612;13.300;2023-05-10T06:29:35;17.40;96.60
18797;DHT22;9526;52.612;13.300;2023-05-10T06:31:58;17.80;95.70
18797;DHT22;9526;52.612;13.300;2023-05-10T06:34:23;17.60;94.80
18797;DHT22;9526;52.612;13.300;2023-05-10T06:36:47;17.90;94.70
18797;DHT22;9526;52.612;13.300;2023-05-10T06:39:11;18.10;94.30
18797;DHT22;9526;52.612;13.300;2023-05-10T06:41:34;18.30;93.60
18797;DHT22;9526;52.612;13.300;2023-05-10T06:43:58;18.60;94.70
18797;DHT22;9526;52.612;13.300;2023-05-10T06:46:22;18.80;92.90
18797;DHT22;9526;52.612;13.300;2023-05-10T06:48:46;18.70;92.30
18797;DHT22;9526;52.612;13.300;2023-05-10T06:51:11;18.60;92.70
18797;DHT22;9526;52.612;13.300;2023-05-10T06:53:34;18.40;92.10
18797;DHT22;9526;52.612;13.300;2023-05-10T06:55:58;18.90;93.90
18797;DHT22;9526;52.612;13.300;2023-05-10T06:58:21;19.30;91.50
18797;DHT22;9526;52.612;13.300;2023-05-10T07:00:45;19.30;91.80
18797;DHT22;9526;52.612;13.300;2023-05-10T07:03:09;19.30;91.50
18797;DHT22;9526;52.612;13.300;2023-05-10T07:05:33;19.50;91.20
18797;DHT22;9526;52.612;13.300;2023-05-10T07:07:58;19.60;90.50
18797;DHT22;9526;52.612;13.300;2023-05-10T07:10:22;19.90;92.70
18797;DHT22;9526;52.612;13.300;2023-05-10T07:12:45;20.30;90.90
18797;DHT22;9526;52.612;13.300;2023-05-10T07:15:09;20.20;92.40
18797;DHT22;9526;52.612;13.300;2023-05-10T07:17:33;20.10;89.70
18797;DHT22;9526;52.612;13.300;2023-05-10T07:19:57;20.20;90.10
18797;DHT22;9526;52.612;13.300;2023-05-10T07:22:20;20.10;90.00
18797;DHT22;9526;52.612;13.300;2023-05-10T07:24:45;19.80;90.90
18797;DHT22;9526;52.612;13.300;2023-05-10T07:27:09;19.50;90.60
18797;DHT22;9526;52.612;13.300;2023-05-10T07:29:33;19.40;90.80
18797;DHT22;9526;52.612;13.300;2023-05-10T07:31:56;19.40;91.50
18797;DHT22;9526;52.612;13.300;2023-05-10T07:34:20;19.60;90.00
18797;DHT22;9526;52.612;13.300;2023-05-10T07:36:44;19.60;90.00
18797;DHT22;9526;52.612;13.300;2023-05-10T07:39:07;19.40;91.80
18797;DHT22;9526;52.612;13.300;2023-05-10T07:41:36;19.50;90.50
18797;DHT22;9526;52.612;13.300;2023-05-10T07:44:00;19.40;91.00
18797;DHT22;9526;52.612;13.300;2023-05-10T07:46:24;19.40;92.00
18797;DHT22;9526;52.612;13.300;2023-05-10T07:48:48;19.20;90.90
18797;DHT22;9526;52.612;13.300;2023-05-10T07:51:11;19.00;90.90
18797;DHT22;9526;52.612;13.300;2023-05-10T07:53:35;19.10;91.20
18797;DHT22;9526;52.612;13.300;2023-05-10T07:55:59;18.90;91.10
18797;DHT22;9526;52.612;13.300;2023-05-10T07:58:24;18.90;92.00
18797;DHT22;9526;52.612;13.300;2023-05-10T08:00:48;18.90;90.50
18797;DHT22;9526;52.612;13.300;2023-05-10T08:03:11;18.90;90.90
18797;DHT22;9526;52.612;13.300;2023-05-10T08:05:35;18.90;90.60
18797;DHT22;9526;52.612;13.300;2023-05-10T08:07:59;19.00;91.50
18797;DHT22;9526;52.612;13.300;2023-05-10T08:10:23;19.00;90.90
18797;DHT22;9526;52.612;13.300;2023-05-10T08:12:47;19.10;91.20
18797;DHT22;9526;52.612;13.300;2023-05-10T08:15:12;19.10;91.70
18797;DHT22;9526;52.612;13.300;2023-05-10T08:17:36;19.40;91.40
18797;DHT22;9526;52.612;13.300;2023-05-10T08:20:00;19.40;90.90
18797;DHT22;9526;52.612;13.300;2023-05-10T08:22:23;19.50;90.10
18797;DHT22;9526;52.612;13.300;2023-05-10T08:24:47;19.40;90.70
18797;DHT22;9526;52.612;13.300;2023-05-10T08:27:11;19.50;90.90
18797;DHT22;9526;52.612;13.300;2023-05-10T08:29:34;19.50;90.70
18797;DHT22;9526;52.612;13.300;2023-05-10T08:32:12;19.60;90.80
18797;DHT22;9526;52.612;13.300;2023-05-10T08:34:35;19.80;91.50
18797;DHT22;9526;52.612;13.300;2023-05-10T08:36:59;19.90;91.50
18797;DHT22;9526;52.612;13.300;2023-05-10T08:39:22;19.90;90.50
18797;DHT22;9526;52.612;13.300;2023-05-10T08:41:53;19.80;91.00
18797;DHT22;9526;52.612;13.300;2023-05-10T08:44:17;19.80;89.00
18797;DHT22;9526;52.612;13.300;2023-05-10T08:46:41;19.70;90.60
18797;DHT22;9526;52.612;13.300;2023-05-10T08:49:11;19.80;90.70
18797;DHT22;9526;52.612;13.300;2023-05-10T08:51:40;19.90;91.50
18797;DHT22;9526;52.612;13.300;2023-05-10T08:54:04;20.00;91.60
18797;DHT22;9526;52.612;13.300;2023-05-10T08:56:29;20.00;89.70
18797;DHT22;9526;52.612;13.300;2023-05-10T08:58:52;19.80;88.70
18797;DHT22;9526;52.612;13.300;2023-05-10T09:01:18;19.90;90.00
18797;DHT22;9526;52.612;13.300;2023-05-10T09:03:43;20.10;90.80
18797;DHT22;9526;52.612;13.300;2023-05-10T09:06:08;20.00;89.70
18797;DHT22;9526;52.612;13.300;2023-05-10T09:08:32;19.90;87.60
18797;DHT22;9526;52.612;13.300;2023-05-10T09:10:56;19.90;90.70
18797;DHT22;9526;52.612;13.300;2023-05-10T09:13:21;20.10;90.40
18797;DHT22;9526;52.612;13.300;2023-05-10T09:15:47;20.10;88.60
18797;DHT22;9526;52.612;13.300;2023-05-10T09:18:11;20.20;88.20
18797;DHT22;9526;52.612;13.300;2023-05-10T09:20:35;20.30;88.40
18797;DHT22;9526;52.612;13.300;2023-05-10T09:23:00;20.20;87.40
18797;DHT22;9526;52.612;13.300;2023-05-10T09:25:24;20.40;87.80
18797;DHT22;9526;52.612;13.300;2023-05-10T09:27:48;20.40;90.20
18797;DHT22;9526;52.612;13.300;2023-05-10T09:30:15;20.50;89.80
18797;DHT22;9526;52.612;13.300;2023-05-10T09:32:41;20.70;87.90
18797;DHT22;9526;52.612;13.300;2023-05-10T09:35:07;20.90;89.90
18797;DHT22;9526;52.612;13.300;2023-05-10T09:37:32;21.30;86.90
18797;DHT22;9526;52.612;13.300;2023-05-10T09:39:57;21.20;86.90
18797;DHT22;9526;52.612;13.300;2023-05-10T09:42:20;21.10;85.40
18797;DHT22;9526;52.612;13.300;2023-05-10T09:44:45;21.20;85.00
18797;DHT22;9526;52.612;13.300;2023-05-10T09:47:09;21.30;89.30
18797;DHT22;9526;52.612;13.300;2023-05-10T09:49:33;21.30;84.30
18797;DHT22;9526;52.612;13.300;2023-05-10T09:52:01;21.40;84.60
18797;DHT22;9526;52.612;13.300;2023-05-10T09:54:25;21.60;88.30
18797;DHT22;9526;52.612;13.300;2023-05-10T09:56:50;21.70;82.80
18797;DHT22;9526;52.612;13.300;2023-05-10T09:59:14;22.20;88.50
18797;DHT22;9526;52.612;13.300;2023-05-10T10:01:39;22.20;81.80
18797;DHT22;9526;52.612;13.300;2023-05-10T10:04:05;22.30;82.90
18797;DHT22;9526;52.612;13.300;2023-05-10T10:06:34;22.60;82.60
18797;DHT22;9526;52.612;13.300;2023-05-10T10:08:59;22.60;80.30
18797;DHT22;9526;52.612;13.300;2023-05-10T10:11:24;22.80;80.10
18797;DHT22;9526;52.612;13.300;2023-05-10T10:13:49;22.80;80.00
18797;DHT22;9526;52.612;13.300;2023-05-10T10:16:13;22.80;79.80
18797;DHT22;9526;52.612;13.300;2023-05-10T10:18:37;23.10;81.80
18797;DHT22;9526;52.612;13.300;2023-05-10T10:21:02;23.40;80.90
18797;DHT22;9526;52.612;13.300;2023-05-10T10:23:26;23.70;80.40
18797;DHT22;9526;52.612;13.300;2023-05-10T10:25:50;23.90;82.00
18797;DHT22;9526;52.612;13.300;2023-05-10T10:28:22;23.80;76.30
18797;DHT22;9526;52.612;13.300;2023-05-10T10:30:52;23.60;79.00
18797;DHT22;9526;52.612;13.300;2023-05-10T10:33:55;23.70;77.00
18797;DHT22;9526;52.612;13.300;2023-05-10T10:36:22;23.80;78.20
18797;DHT22;9526;52.612;13.300;2023-05-10T10:38:55;23.60;77.90
18797;DHT22;9526;52.612;13.300;2023-05-10T10:41:29;23.70;76.10
18797;DHT22;9526;52.612;13.300;2023-05-10T10:47:01;23.70;78.50
18797;DHT22;9526;52.612;13.300;2023-05-10T10:49:29;23.90;77.50
18797;DHT22;9526;52.612;13.300;2023-05-10T10:52:13;24.30;77.90
18797;DHT22;9526;52.612;13.300;2023-05-10T10:54:51;24.20;75.60
18797;DHT22;9526;52.612;13.300;2023-05-10T10:57:15;24.00;73.90
18797;DHT22;9526;52.612;13.300;2023-05-10T10:59:42;23.90;75.30
18797;DHT22;9526;52.612;13.300;2023-05-10T11:02:08;24.30;77.70
18797;DHT22;9526;52.612;13.300;2023-05-10T11:04:41;24.70;75.40
18797;DHT22;9526;52.612;13.300;2023-05-10T11:07:18;24.50;74.70
18797;DHT22;9526;52.612;13.300;2023-05-10T11:09:42;24.50;73.40
18797;DHT22;9526;52.612;13.300;2023-05-10T11:12:08;24.70;78.80
18797;DHT22;9526;52.612;13.300;2023-05-10T11:14:32;25.00;72.40
18797;DHT22;9526;52.612;13.300;2023-05-10T11:16:55;25.20;75.40
18797;DHT22;9526;52.612;13.300;2023-05-10T11:19:20;24.90;69.50
18797;DHT22;9526;52.612;13.300;2023-05-10T11:21:46;25.20;70.80
18797;DHT22;9526;52.612;13.300;2023-05-10T11:24:13;25.10;68.90
18797;DHT22;9526;52.612;13.300;2023-05-10T11:26:37;25.40;75.30
18797;DHT22;9526;52.612;13.300;2023-05-10T11:29:01;25.10;68.20
18797;DHT22;9526;52.612;13.300;2023-05-10T11:31:26;24.80;69.00
18797;DHT22;9526;52.612;13.300;2023-05-10T11:33:53;24.80;70.40
18797;DHT22;9526;52.612;13.300;2023-05-10T11:36:19;24.80;69.80
18797;DHT22;9526;52.612;13.300;2023-05-10T11:38:44;24.80;71.50
18797;DHT22;9526;52.612;13.300;2023-05-10T11:41:08;25.10;72.00
18797;DHT22;9526;52.612;13.300;2023-05-10T11:43:33;25.10;74.00
18797;DHT22;9526;52.612;13.300;2023-05-10T11:45:58;25.20;70.90
18797;DHT22;9526;52.612;13.300;2023-05-10T11:48:22;25.40;68.30
18797;DHT22;9526;52.612;13.300;2023-05-10T11:50:46;25.60;69.60
18797;DHT22;9526;52.612;13.300;2023-05-10T11:53:13;25.80;69.40
18797;DHT22;9526;52.612;13.300;2023-05-10T11:55:36;26.00;70.10
18797;DHT22;9526;52.612;13.300;2023-05-10T11:58:01;25.90;68.10
18797;DHT22;9526;52.612;13.300;2023-05-10T12:00:25;26.30;69.50
18797;DHT22;9526;52.612;13.300;2023-05-10T12:02:49;26.10;68.50
18797;DHT22;9526;52.612;13.300;2023-05-10T12:05:13;26.40;65.50
18797;DHT22;9526;52.612;13.300;2023-05-10T12:07:37;25.90;67.80
18797;DHT22;9526;52.612;13.300;2023-05-10T12:10:06;25.90;69.50
18797;DHT22;9526;52.612;13.300;2023-05-10T12:12:38;26.00;66.00
18797;DHT22;9526;52.612;13.300;2023-05-10T12:15:05;26.10;66.40
18797;DHT22;9526;52.612;13.300;2023-05-10T12:17:29;26.10;70.40
18797;DHT22;9526;52.612;13.300;2023-05-10T12:19:53;26.00;66.50
18797;DHT22;9526;52.612;13.300;2023-05-10T12:22:20;25.90;67.70
18797;DHT22;9526;52.612;13.300;2023-05-10T12:24:45;25.70;67.60
18797;DHT22;9526;52.612;13.300;2023-05-10T12:27:10;25.70;67.20
18797;DHT22;9526;52.612;13.300;2023-05-10T12:29:35;25.80;67.40
18797;DHT22;9526;52.612;13.300;2023-05-10T12:32:03;25.60;66.70
18797;DHT22;9526;52.612;13.300;2023-05-10T12:34:31;25.70;65.10
18797;DHT22;9526;52.612;13.300;2023-05-10T12:36:55;25.90;66.50
18797;DHT22;9526;52.612;13.300;2023-05-10T12:39:19;26.20;67.60
18797;DHT22;9526;52.612;13.300;2023-05-10T12:41:43;26.00;66.40
18797;DHT22;9526;52.612;13.300;2023-05-10T12:44:08;26.20;64.90
18797;DHT22;9526;52.612;13.300;2023-05-10T12:46:32;26.30;62.80
18797;DHT22;9526;52.612;13.300;2023-05-10T12:48:56;26.70;66.30
18797;DHT22;9526;52.612;13.300;2023-05-10T12:51:30;26.70;63.90
18797;DHT22;9526;52.612;13.300;2023-05-10T12:53:54;26.90;69.30
18797;DHT22;9526;52.612;13.300;2023-05-10T12:56:18;27.00;64.60
18797;DHT22;9526;52.612;13.300;2023-05-10T12:58:42;27.10;61.40
18797;DHT22;9526;52.612;13.300;2023-05-10T13:01:11;26.90;62.40
18797;DHT22;9526;52.612;13.300;2023-05-10T13:03:35;27.00;64.40
18797;DHT22;9526;52.612;13.300;2023-05-10T13:05:59;27.10;66.40
18797;DHT22;9526;52.612;13.300;2023-05-10T13:08:23;27.50;66.20
18797;DHT22;9526;52.612;13.300;2023-05-10T13:10:47;27.40;65.70
18797;DHT22;9526;52.612;13.300;2023-05-10T13:13:11;27.40;65.70
18797;DHT22;9526;52.612;13.300;2023-05-10T13:15:34;27.40;61.70
18797;DHT22;9526;52.612;13.300;2023-05-10T13:17:59;27.10;66.00
18797;DHT22;9526;52.612;13.300;2023-05-10T13:20:24;26.70;62.30
18797;DHT22;9526;52.612;13.300;2023-05-10T13:22:48;27.00;64.50
18797;DHT22;9526;52.612;13.300;2023-05-10T13:25:13;27.20;65.70
18797;DHT22;9526;52.612;13.300;2023-05-10T13:27:37;27.00;65.10
18797;DHT22;9526;52.612;13.300;2023-05-10T13:30:01;27.40;68.20
18797;DHT22;9526;52.612;13.300;2023-05-10T13:32:25;27.40;65.80
18797;DHT22;9526;52.612;13.300;2023-05-10T13:34:50;27.90;64.00
18797;DHT22;9526;52.612;13.300;2023-05-10T13:37:13;27.60;63.00
18797;DHT22;9526;52.612;13.300;2023-05-10T13:39:37;27.60;62.00
18797;DHT22;9526;52.612;13.300;2023-05-10T13:42:01;27.40;62.40
18797;DHT22;9526;52.612;13.300;2023-05-10T13:44:25;27.40;63.40
18797;DHT22;9526;52.612;13.300;2023-05-10T13:46:48;27.60;67.70
18797;DHT22;9526;52.612;13.300;2023-05-10T13:49:12;27.90;65.70
18797;DHT22;9526;52.612;13.300;2023-05-10T13:51:38;27.50;60.80
18797;DHT22;9526;52.612;13.300;2023-05-10T13:54:01;27.60;64.90
18797;DHT22;9526;52.612;13.300;2023-05-10T13:56:25;27.70;65.40
18797;DHT22;9526;52.612;13.300;2023-05-10T13:58:49;28.00;66.50
18797;DHT22;9526;52.612;13.300;2023-05-10T14:01:13;28.00;61.40
18797;DHT22;9526;52.612;13.300;2023-05-10T14:03:37;27.60;58.90
18797;DHT22;9526;52.612;13.300;2023-05-10T14:06:01;27.60;58.60
18797;DHT22;9526;52.612;13.300;2023-05-10T14:08:26;27.10;58.70
18797;DHT22;9526;52.612;13.300;2023-05-10T14:10:50;27.00;59.40
18797;DHT22;9526;52.612;13.300;2023-05-10T14:13:14;27.10;58.70
18797;DHT22;9526;52.612;13.300;2023-05-10T14:15:38;27.20;59.90
18797;DHT22;9526;52.612;13.300;2023-05-10T14:18:02;27.50;63.50
18797;DHT22;9526;52.612;13.300;2023-05-10T14:20:25;27.30;57.60
18797;DHT22;9526;52.612;13.300;2023-05-10T14:22:49;27.10;60.40
18797;DHT22;9526;52.612;13.300;2023-05-10T14:25:14;27.20;58.30
18797;DHT22;9526;52.612;13.300;2023-05-10T14:27:38;26.60;59.40
18797;DHT22;9526;52.612;13.300;2023-05-10T14:30:02;26.80;60.90
18797;DHT22;9526;52.612;13.300;2023-05-10T14:32:29;26.70;60.80
18797;DHT22;9526;52.612;13.300;2023-05-10T14:34:54;26.60;61.10
18797;DHT22;9526;52.612;13.300;2023-05-10T14:37:17;26.70;59.10
18797;DHT22;9526;52.612;13.300;2023-05-10T14:39:41;26.30;57.20
18797;DHT22;9526;52.612;13.300;2023-05-10T14:42:06;26.20;57.20
18797;DHT22;9526;52.612;13.300;2023-05-10T14:44:30;26.20;62.00
18797;DHT22;9526;52.612;13.300;2023-05-10T14:46:54;26.10;66.00
18797;DHT22;9526;52.612;13.300;2023-05-10T14:49:18;26.10;61.30
18797;DHT22;9526;52.612;13.300;2023-05-10T14:51:44;26.20;62.30
18797;DHT22;9526;52.612;13.300;2023-05-10T14:54:08;25.90;63.50
18797;DHT22;9526;52.612;13.300;2023-05-10T14:56:31;25.90;62.80
18797;DHT22;9526;52.612;13.300;2023-05-10T14:58:56;25.60;65.70
18797;DHT22;9526;52.612;13.300;2023-05-10T15:01:22;25.20;58.70
18797;DHT22;9526;52.612;13.300;2023-05-10T15:03:47;25.20;65.30
18797;DHT22;9526;52.612;13.300;2023-05-10T15:06:13;25.10;59.80
18797;DHT22;9526;52.612;13.300;2023-05-10T15:08:37;25.00;57.60
18797;DHT22;9526;52.612;13.300;2023-05-10T15:11:00;25.00;62.60
18797;DHT22;9526;52.612;13.300;2023-05-10T15:13:25;24.80;61.30
18797;DHT22;9526;52.612;13.300;2023-05-10T15:15:50;24.80;61.50
18797;DHT22;9526;52.612;13.300;2023-05-10T15:18:13;24.60;62.70
18797;DHT22;9526;52.612;13.300;2023-05-10T15:20:37;24.60;62.50
18797;DHT22;9526;52.612;13.300;2023-05-10T15:23:00;24.50;61.30